createdAt,value
2018-11-22T12:16:54.317Z,36.60
2018-11-22T12:19:22.460Z,37.98
2018-11-22T12:21:50.566Z,39.10
2018-11-22T12:24:18.678Z,38.25
2018-11-22T12:26:46.794Z,37.88
2018-11-22T12:29:14.916Z,36.90
2018-11-22T12:31:43.042Z,35.80
2018-11-22T12:34:20.253Z,38.15
2018-11-22T12:36:52.825Z,37.58
2018-11-22T12:39:20.976Z,38.78
2018-11-22T12:41:49.096Z,41.40
2018-11-22T12:44:17.145Z,37.50
2018-11-22T12:46:45.243Z,36.88
2018-11-22T12:49:13.335Z,38.00
2018-11-22T12:51:41.454Z,39.30
2018-11-22T12:54:10.686Z,35.35
2018-11-22T12:56:38.753Z,35.92
2018-11-22T12:59:06.875Z,36.13
2018-11-22T13:01:35.115Z,40.12
2018-11-22T13:04:03.269Z,36.38
2018-11-22T13:06:31.437Z,33.13
2018-11-22T13:08:59.528Z,34.10
2018-11-22T13:11:28.574Z,34.50
2018-11-22T13:13:56.786Z,32.70
2018-11-22T13:16:25.003Z,32.25
2018-11-22T13:18:53.319Z,30.32
2018-11-22T13:21:22.007Z,30.23
2018-11-22T13:23:50.162Z,29.00
2018-11-22T13:26:18.273Z,28.98
2018-11-22T13:28:46.491Z,30.15
2018-11-22T13:31:14.742Z,29.70
2018-11-22T13:33:43.510Z,28.92
2018-11-22T13:36:11.602Z,28.75
2018-11-22T13:38:39.845Z,28.90
2018-11-22T13:41:08.025Z,28.50
2018-11-22T13:43:36.266Z,29.12
2018-11-22T13:46:21.772Z,27.40
2018-11-22T13:48:49.914Z,25.95
2018-11-22T13:51:18.084Z,26.02
2018-11-22T13:53:46.209Z,26.20
2018-11-22T13:56:14.321Z,26.57
2018-11-22T13:58:42.428Z,25.80
2018-11-22T14:01:11.704Z,27.52
2018-11-22T14:03:40.938Z,30.17
2018-11-22T14:06:09.025Z,30.60
2018-11-22T14:08:37.183Z,28.77
2018-11-22T14:11:13.391Z,28.73
2018-11-22T14:13:33.779Z,31.30
2018-11-22T14:16:01.894Z,30.80
2018-11-22T14:18:30.001Z,31.02
2018-11-22T14:20:58.143Z,32.80
2018-11-22T14:23:26.247Z,31.05
2018-11-22T14:25:54.342Z,29.82
2018-11-22T14:28:22.506Z,29.95
2018-11-22T14:30:50.605Z,30.52
2018-11-22T14:33:18.779Z,28.80
2018-11-22T14:35:47.001Z,31.62
2018-11-22T14:38:15.209Z,30.50
2018-11-22T14:40:43.297Z,29.77
2018-11-22T14:43:11.509Z,30.90
2018-11-22T14:45:39.676Z,30.88
2018-11-22T14:48:07.973Z,31.60
2018-11-22T14:50:41.234Z,31.80
2018-11-22T14:53:13.194Z,32.75
2018-11-22T14:55:41.289Z,32.85
2018-11-22T14:58:09.731Z,35.20
2018-11-22T15:00:37.849Z,33.23
2018-11-22T15:03:06.070Z,34.45
2018-11-22T15:05:34.361Z,36.17
2018-11-22T15:08:02.691Z,35.92
2018-11-22T15:10:30.850Z,34.98
2018-11-22T15:12:59.122Z,33.42
2018-11-22T15:15:28.141Z,33.43
2018-11-22T15:17:56.227Z,34.30
2018-11-22T15:20:24.417Z,33.53
2018-11-22T15:22:53.413Z,34.45
2018-11-22T15:25:23.090Z,35.63
2018-11-22T15:27:51.218Z,34.05
2018-11-22T15:30:21.305Z,33.90
2018-11-22T15:32:49.394Z,33.38
2018-11-22T15:35:19.079Z,34.67
2018-11-22T15:37:47.550Z,33.60
2018-11-22T15:40:17.969Z,37.78
2018-11-22T15:42:48.471Z,35.73
2018-11-22T15:45:17.286Z,35.98
2018-11-22T15:47:45.660Z,36.80
2018-11-22T15:50:17.133Z,36.05
2018-11-22T15:52:45.437Z,35.90
2018-11-22T15:55:20.467Z,34.73
2018-11-22T15:57:43.593Z,34.78
2018-11-22T16:00:15.249Z,35.20
2018-11-22T16:02:44.224Z,34.92
2018-11-22T16:05:13.130Z,36.53
2018-11-22T16:07:42.129Z,35.60
2018-11-22T16:10:13.011Z,36.17
2018-11-22T16:12:41.225Z,35.63
2018-11-22T16:15:11.526Z,35.30
2018-11-22T16:17:40.390Z,35.80
2018-11-22T16:20:08.729Z,37.00
2018-11-22T16:22:37.058Z,35.90
2018-11-22T16:25:06.913Z,35.70
2018-11-22T16:27:35.002Z,35.13
2018-11-22T16:30:03.163Z,35.60
2018-11-22T16:32:31.286Z,36.13
2018-11-22T16:34:59.363Z,33.50
2018-11-22T16:37:27.426Z,34.27
2018-11-22T16:39:55.533Z,35.60
2018-11-22T16:42:23.630Z,34.48
2018-11-22T16:44:51.789Z,35.98
2018-11-22T16:47:19.882Z,37.38
2018-11-22T16:49:47.966Z,37.88
2018-11-22T16:52:16.090Z,37.93
2018-11-22T16:54:44.206Z,40.28
2018-11-22T16:57:12.281Z,38.78
2018-11-22T16:59:40.418Z,39.45
2018-11-22T17:02:08.513Z,38.58
2018-11-22T17:04:36.594Z,39.57
2018-11-22T17:07:04.740Z,37.50
2018-11-22T17:09:32.944Z,41.13
2018-11-22T17:12:01.102Z,40.52
2018-11-22T17:14:29.196Z,39.23
2018-11-22T17:16:57.319Z,39.38
2018-11-22T17:19:25.501Z,40.00
2018-11-22T17:21:53.734Z,39.50
2018-11-22T17:24:21.856Z,41.55
2018-11-22T17:26:49.930Z,39.85
2018-11-22T17:29:18.001Z,42.43
2018-11-22T17:31:46.105Z,42.30
2018-11-22T17:34:14.305Z,43.08
2018-11-22T17:36:42.421Z,41.77
2018-11-22T17:39:13.172Z,40.90
2018-11-22T17:41:41.262Z,44.73
2018-11-22T17:44:09.481Z,45.03
2018-11-22T17:46:37.905Z,43.23
2018-11-22T17:49:06.591Z,45.30
2018-11-22T17:51:34.664Z,45.23
2018-11-22T17:54:02.874Z,44.90
2018-11-22T17:56:31.144Z,45.40
2018-11-22T17:58:59.194Z,43.60
2018-11-22T18:01:27.297Z,46.23
2018-11-22T18:03:55.363Z,45.48
2018-11-22T18:06:23.475Z,45.73
2018-11-22T18:08:51.589Z,43.13
2018-11-22T18:11:19.728Z,45.45
2018-11-22T18:13:47.873Z,42.50
2018-11-22T18:16:16.006Z,44.00
2018-11-22T18:18:44.144Z,45.55
2018-11-22T18:21:12.225Z,46.75
2018-11-22T18:23:40.298Z,45.00
2018-11-22T18:26:08.388Z,48.70
2018-11-22T18:28:36.618Z,45.97
2018-11-22T18:31:04.854Z,54.08
2018-11-22T18:33:32.938Z,46.10
2018-11-22T18:36:01.039Z,44.03
2018-11-22T18:38:29.105Z,45.90
2018-11-22T18:40:57.193Z,48.70
2018-11-22T18:43:25.309Z,44.30
2018-11-22T18:45:53.360Z,44.80
2018-11-22T18:48:21.662Z,47.70
2018-11-22T18:50:50.023Z,45.52
2018-11-22T18:53:18.126Z,44.67
2018-11-22T18:55:46.275Z,43.53
2018-11-22T18:58:14.369Z,43.02
2018-11-22T19:00:43.878Z,45.33
2018-11-22T19:03:17.519Z,46.63
2018-11-22T19:05:45.612Z,48.80
2018-11-22T19:08:13.713Z,48.00
2018-11-22T19:10:42.614Z,44.88
2018-11-22T19:13:11.485Z,47.67
2018-11-22T19:15:41.097Z,50.27
2018-11-22T19:18:09.922Z,48.15
2018-11-22T19:20:39.402Z,46.80
2018-11-22T19:23:08.757Z,48.87
2018-11-22T19:25:38.345Z,46.60
2018-11-22T19:28:07.301Z,47.93
2018-11-22T19:30:38.006Z,45.38
2018-11-22T19:33:07.559Z,50.92
2018-11-22T19:35:37.659Z,45.55
2018-11-22T19:38:06.089Z,49.03
2018-11-22T19:40:35.598Z,51.77
2018-11-22T19:43:04.837Z,51.18
2018-11-22T19:45:34.552Z,48.02
2018-11-22T19:48:02.713Z,47.80
2018-11-22T19:50:31.364Z,54.67
2018-11-22T19:53:00.726Z,53.87
2018-11-22T19:55:30.199Z,58.60
2018-11-22T19:57:59.924Z,54.67
2018-11-22T20:00:28.531Z,52.05
2018-11-22T20:02:57.920Z,52.88
2018-11-22T20:05:26.975Z,58.70
2018-11-22T20:07:56.814Z,54.50
2018-11-22T20:10:27.414Z,56.98
2018-11-22T20:12:55.600Z,55.60
2018-11-22T20:15:23.706Z,51.37
2018-11-22T20:17:52.404Z,53.27
2018-11-22T20:20:21.201Z,62.08
2018-11-22T20:22:49.389Z,78.57
2018-11-22T20:25:17.461Z,90.42
2018-11-22T20:27:45.677Z,81.57
2018-11-22T20:30:19.141Z,77.57
2018-11-22T20:32:47.545Z,72.12
2018-11-22T20:35:17.089Z,70.83
2018-11-22T20:37:46.181Z,73.30
2018-11-22T20:40:15.814Z,73.40
2018-11-22T20:42:43.889Z,87.27
2018-11-22T20:45:13.899Z,75.57
2018-11-22T20:47:42.713Z,72.87
2018-11-22T20:50:13.209Z,70.73
2018-11-22T20:52:41.310Z,73.83
2018-11-22T20:55:11.941Z,74.43
2018-11-22T20:57:40.017Z,73.23
2018-11-22T21:00:11.637Z,78.40
2018-11-22T21:02:39.859Z,82.02
2018-11-22T21:05:08.723Z,76.95
2018-11-22T21:07:36.845Z,69.77
2018-11-22T21:10:06.668Z,71.45
2018-11-22T21:12:34.721Z,72.42
2018-11-22T21:15:02.815Z,72.65
2018-11-22T21:17:30.920Z,61.13
2018-11-22T21:19:59.125Z,72.15
2018-11-22T21:22:27.245Z,66.75
2018-11-22T21:24:55.562Z,65.73
2018-11-22T21:27:23.698Z,62.03
2018-11-22T21:29:51.809Z,60.87
2018-11-22T21:32:19.944Z,64.10
2018-11-22T21:34:48.212Z,62.67
2018-11-22T21:37:16.298Z,59.55
2018-11-22T21:39:44.505Z,63.45
2018-11-22T21:42:12.733Z,62.97
2018-11-22T21:44:40.941Z,58.55
2018-11-22T21:47:09.063Z,58.87
2018-11-22T21:49:37.324Z,61.08
2018-11-22T21:52:05.629Z,68.50
2018-11-22T21:54:33.801Z,65.35
2018-11-22T21:57:01.887Z,55.65
2018-11-22T21:59:29.998Z,67.95
2018-11-22T22:01:58.109Z,66.42
2018-11-22T22:04:26.219Z,63.35
2018-11-22T22:06:54.322Z,65.10
2018-11-22T22:09:22.418Z,67.47
2018-11-22T22:11:50.529Z,66.77
2018-11-22T22:14:18.700Z,58.35
2018-11-22T22:16:46.874Z,63.13
2018-11-22T22:19:15.030Z,62.17
2018-11-22T22:21:43.194Z,61.50
2018-11-22T22:24:11.297Z,59.13
2018-11-22T22:26:39.466Z,54.30
2018-11-22T22:29:07.578Z,57.13
2018-11-22T22:31:35.729Z,61.60
2018-11-22T22:34:03.822Z,55.83
2018-11-22T22:36:31.981Z,53.08
2018-11-22T22:40:15.873Z,60.52
2018-11-22T22:42:44.971Z,57.25
2018-11-22T22:45:15.558Z,56.63
2018-11-22T22:47:44.289Z,61.50
2018-11-22T22:50:14.574Z,61.83
2018-11-22T22:52:42.736Z,55.52
2018-11-22T22:55:11.674Z,57.10
2018-11-22T22:57:40.120Z,70.47
2018-11-22T23:00:16.025Z,54.40
2018-11-22T23:02:44.225Z,64.90
2018-11-22T23:05:12.342Z,59.42
2018-11-22T23:07:40.489Z,61.40
2018-11-22T23:10:08.638Z,55.38
2018-11-22T23:12:36.826Z,58.95
2018-11-22T23:15:07.494Z,59.35
2018-11-22T23:17:35.584Z,60.20
2018-11-22T23:20:04.181Z,58.50
2018-11-22T23:22:32.292Z,63.10
2018-11-22T23:25:00.497Z,57.05
2018-11-22T23:27:28.593Z,58.33
2018-11-22T23:29:56.745Z,61.75
2018-11-22T23:32:24.869Z,62.33
2018-11-22T23:34:52.949Z,57.83
2018-11-22T23:37:21.469Z,63.13
2018-11-22T23:39:49.566Z,64.72
2018-11-22T23:42:17.662Z,64.55
2018-11-22T23:44:45.825Z,70.75
2018-11-22T23:47:13.923Z,65.03
2018-11-22T23:49:42.004Z,62.35
2018-11-22T23:52:10.118Z,75.60
2018-11-22T23:54:38.289Z,68.07
2018-11-22T23:57:06.409Z,70.10
2018-11-22T23:59:34.575Z,64.50
